sensor_id;sensor_type;location;lat;lon;timestamp;pressure;altitude;pressure_sealevel;temperature;humidity
8637;BME280;4356;49.068;8.658;2022-07-23T00:00:54;99752.47;;;30.39;37.64
8637;BME280;4356;49.068;8.658;2022-07-23T00:03:19;99746.09;;;30.38;37.71
8637;BME280;4356;49.068;8.658;2022-07-23T00:05:45;99742.00;;;30.36;38.05
8637;BME280;4356;49.068;8.658;2022-07-23T00:08:10;99751.63;;;30.38;38.00
8637;BME280;4356;49.068;8.658;2022-07-23T00:10:36;99751.16;;;30.37;38.14
8637;BME280;4356;49.068;8.658;2022-07-23T00:13:02;99739.59;;;30.29;38.12
8637;BME280;4356;49.068;8.658;2022-07-23T00:15:27;99745.66;;;30.31;38.10
8637;BME280;4356;49.068;8.658;2022-07-23T00:17:53;99753.19;;;30.31;37.96
8637;BME280;4356;49.068;8.658;2022-07-23T00:20:18;99752.03;;;30.32;38.11
8637;BME280;4356;49.068;8.658;2022-07-23T00:22:52;99757.38;;;30.28;37.99
8637;BME280;4356;49.068;8.658;2022-07-23T00:25:19;99767.53;;;30.33;37.89
8637;BME280;4356;49.068;8.658;2022-07-23T00:27:45;99767.63;;;30.28;37.61
8637;BME280;4356;49.068;8.658;2022-07-23T00:30:11;99778.41;;;30.29;37.87
8637;BME280;4356;49.068;8.658;2022-07-23T00:32:53;99782.84;;;30.30;37.60
8637;BME280;4356;49.068;8.658;2022-07-23T00:35:22;99774.63;;;30.25;37.45
8637;BME280;4356;49.068;8.658;2022-07-23T00:37:48;99774.63;;;30.25;37.62
8637;BME280;4356;49.068;8.658;2022-07-23T00:40:14;99773.47;;;30.26;37.29
8637;BME280;4356;49.068;8.658;2022-07-23T00:42:40;99750.31;;;30.17;37.48
8637;BME280;4356;49.068;8.658;2022-07-23T00:45:06;99761.00;;;30.24;37.46
8637;BME280;4356;49.068;8.658;2022-07-23T00:47:32;99760.78;;;30.20;37.36
8637;BME280;4356;49.068;8.658;2022-07-23T00:49:57;99755.84;;;30.17;37.27
8637;BME280;4356;49.068;8.658;2022-07-23T00:52:23;99753.41;;;30.16;37.35
8637;BME280;4356;49.068;8.658;2022-07-23T00:54:49;99758.94;;;30.16;37.42
8637;BME280;4356;49.068;8.658;2022-07-23T00:57:15;99753.69;;;30.14;37.54
8637;BME280;4356;49.068;8.658;2022-07-23T00:59:41;99748.16;;;30.14;37.57
8637;BME280;4356;49.068;8.658;2022-07-23T01:02:07;99742.63;;;30.14;37.30
8637;BME280;4356;49.068;8.658;2022-07-23T01:04:32;99748.75;;;30.11;37.31
8637;BME280;4356;49.068;8.658;2022-07-23T01:06:58;99743.19;;;30.11;37.33
8637;BME280;4356;49.068;8.658;2022-07-23T01:09:24;99751.25;;;30.13;37.31
8637;BME280;4356;49.068;8.658;2022-07-23T01:11:50;99734.88;;;30.11;37.01
8637;BME280;4356;49.068;8.658;2022-07-23T01:14:18;99744.34;;;30.10;37.13
8637;BME280;4356;49.068;8.658;2022-07-23T01:16:45;99751.00;;;30.09;37.36
8637;BME280;4356;49.068;8.658;2022-07-23T01:19:11;99748.53;;;30.08;37.57
8637;BME280;4356;49.068;8.658;2022-07-23T01:21:39;99740.81;;;30.05;37.50
8637;BME280;4356;49.068;8.658;2022-07-23T01:24:05;99736.44;;;30.04;37.42
8637;BME280;4356;49.068;8.658;2022-07-23T01:26:31;99734.22;;;30.01;37.18
8637;BME280;4356;49.068;8.658;2022-07-23T01:28:56;99733.41;;;30.00;37.41
8637;BME280;4356;49.068;8.658;2022-07-23T01:31:22;99733.41;;;30.00;37.56
8637;BME280;4356;49.068;8.658;2022-07-23T01:33:48;99743.91;;;30.03;37.09
8637;BME280;4356;49.068;8.658;2022-07-23T01:36:14;99750.03;;;30.00;37.51
8637;BME280;4356;49.068;8.658;2022-07-23T01:38:39;99740.19;;;29.94;37.33
8637;BME280;4356;49.068;8.658;2022-07-23T01:41:05;99756.81;;;29.94;37.24
8637;BME280;4356;49.068;8.658;2022-07-23T01:43:30;99765.63;;;29.96;37.55
8637;BME280;4356;49.068;8.658;2022-07-23T01:45:56;99778.97;;;29.94;37.51
8637;BME280;4356;49.068;8.658;2022-07-23T01:48:21;99775.66;;;29.92;37.41
8637;BME280;4356;49.068;8.658;2022-07-23T01:50:47;99776.50;;;29.93;37.31
8637;BME280;4356;49.068;8.658;2022-07-23T01:53:14;99770.13;;;29.92;37.32
8637;BME280;4356;49.068;8.658;2022-07-23T01:55:39;99768.47;;;29.91;37.58
8637;BME280;4356;49.068;8.658;2022-07-23T01:58:05;99754.59;;;29.91;37.59
8637;BME280;4356;49.068;8.658;2022-07-23T02:00:31;99758.50;;;29.90;37.51
8637;BME280;4356;49.068;8.658;2022-07-23T02:02:57;99761.91;;;29.87;37.83
8637;BME280;4356;49.068;8.658;2022-07-23T02:05:24;99774.31;;;29.90;37.48
8637;BME280;4356;49.068;8.658;2022-07-23T02:07:50;99775.16;;;29.90;37.45
8637;BME280;4356;49.068;8.658;2022-07-23T02:10:16;99766.59;;;29.87;37.33
8637;BME280;4356;49.068;8.658;2022-07-23T02:12:41;99762.44;;;29.89;37.71
8637;BME280;4356;49.068;8.658;2022-07-23T02:15:07;99766.59;;;29.87;37.66
8637;BME280;4356;49.068;8.658;2022-07-23T02:17:33;99764.97;;;29.86;37.38
8637;BME280;4356;49.068;8.658;2022-07-23T02:19:58;99752.31;;;29.80;37.25
8637;BME280;4356;49.068;8.658;2022-07-23T02:22:24;99773.88;;;29.83;37.32
8637;BME280;4356;49.068;8.658;2022-07-23T02:24:49;99770.88;;;29.79;37.65
8637;BME280;4356;49.068;8.658;2022-07-23T02:27:15;99778.56;;;29.82;37.21
8637;BME280;4356;49.068;8.658;2022-07-23T02:29:40;99779.50;;;29.78;37.21
8637;BME280;4356;49.068;8.658;2022-07-23T02:32:05;99778.75;;;29.72;36.99
8637;BME280;4356;49.068;8.658;2022-07-23T02:34:31;99787.28;;;29.76;37.15
8637;BME280;4356;49.068;8.658;2022-07-23T02:36:56;99788.41;;;29.75;37.31
8637;BME280;4356;49.068;8.658;2022-07-23T02:39:22;99778.75;;;29.72;37.56
8637;BME280;4356;49.068;8.658;2022-07-23T02:41:47;99798.66;;;29.74;37.19
8637;BME280;4356;49.068;8.658;2022-07-23T02:44:12;99794.84;;;29.70;37.42
8637;BME280;4356;49.068;8.658;2022-07-23T02:46:38;99806.44;;;29.72;37.27
8637;BME280;4356;49.068;8.658;2022-07-23T02:49:03;99801.78;;;29.68;37.34
8637;BME280;4356;49.068;8.658;2022-07-23T02:51:30;99803.13;;;29.70;37.32
8637;BME280;4356;49.068;8.658;2022-07-23T02:53:55;99797.34;;;29.67;37.60
8637;BME280;4356;49.068;8.658;2022-07-23T02:56:21;99800.94;;;29.67;37.62
8637;BME280;4356;49.068;8.658;2022-07-23T02:58:46;99821.69;;;29.70;37.73
8637;BME280;4356;49.068;8.658;2022-07-23T03:01:12;99819.81;;;29.65;37.79
8637;BME280;4356;49.068;8.658;2022-07-23T03:03:37;99825.66;;;29.64;37.80
8637;BME280;4356;49.068;8.658;2022-07-23T03:06:02;99825.94;;;29.62;37.64
8637;BME280;4356;49.068;8.658;2022-07-23T03:08:28;99832.81;;;29.65;37.68
8637;BME280;4356;49.068;8.658;2022-07-23T03:10:53;99829.59;;;29.58;37.54
8637;BME280;4356;49.068;8.658;2022-07-23T03:13:19;99834.25;;;29.62;37.73
8637;BME280;4356;49.068;8.658;2022-07-23T03:15:44;99825.41;;;29.60;37.61
8637;BME280;4356;49.068;8.658;2022-07-23T03:18:10;99816.34;;;29.55;37.72
8637;BME280;4356;49.068;8.658;2022-07-23T03:20:35;99826.28;;;29.56;37.89
8637;BME280;4356;49.068;8.658;2022-07-23T03:23:01;99839.56;;;29.59;37.94
8637;BME280;4356;49.068;8.658;2022-07-23T03:25:26;99839.84;;;29.57;37.71
8637;BME280;4356;49.068;8.658;2022-07-23T03:27:52;99847.34;;;29.57;37.61
8637;BME280;4356;49.068;8.658;2022-07-23T03:30:17;99839.06;;;29.52;37.45
8637;BME280;4356;49.068;8.658;2022-07-23T03:32:42;99848.44;;;29.56;37.72
8637;BME280;4356;49.068;8.658;2022-07-23T03:35:08;99856.75;;;29.56;37.83
8637;BME280;4356;49.068;8.658;2022-07-23T03:37:34;99858.47;;;29.52;37.79
8637;BME280;4356;49.068;8.658;2022-07-23T03:39:59;99846.34;;;29.48;37.96
8637;BME280;4356;49.068;8.658;2022-07-23T03:42:25;99852.13;;;29.51;37.60
8637;BME280;4356;49.068;8.658;2022-07-23T03:44:50;99842.16;;;29.50;37.55
8637;BME280;4356;49.068;8.658;2022-07-23T03:47:15;99837.44;;;29.51;37.51
8637;BME280;4356;49.068;8.658;2022-07-23T03:49:42;99832.28;;;29.44;37.81
8637;BME280;4356;49.068;8.658;2022-07-23T03:52:08;99836.69;;;29.45;37.63
8637;BME280;4356;49.068;8.658;2022-07-23T03:54:33;99842.00;;;29.42;37.66
8637;BME280;4356;49.068;8.658;2022-07-23T03:56:59;99843.84;;;29.46;37.59
8637;BME280;4356;49.068;8.658;2022-07-23T03:59:24;99843.63;;;29.42;37.55
8637;BME280;4356;49.068;8.658;2022-07-23T04:01:50;99835.91;;;29.39;37.56
8637;BME280;4356;49.068;8.658;2022-07-23T04:04:16;99830.06;;;29.41;37.48
8637;BME280;4356;49.068;8.658;2022-07-23T04:06:41;99833.16;;;29.39;37.51
8637;BME280;4356;49.068;8.658;2022-07-23T04:09:06;99838.69;;;29.39;37.46
8637;BME280;4356;49.068;8.658;2022-07-23T04:11:32;99842.06;;;29.36;37.64
8637;BME280;4356;49.068;8.658;2022-07-23T04:13:58;99862.22;;;29.37;37.57
8637;BME280;4356;49.068;8.658;2022-07-23T04:16:23;99883.88;;;29.35;37.71
8637;BME280;4356;49.068;8.658;2022-07-23T04:18:49;99886.66;;;29.35;37.70
8637;BME280;4356;49.068;8.658;2022-07-23T04:21:14;99878.59;;;29.33;37.87
8637;BME280;4356;49.068;8.658;2022-07-23T04:23:39;99881.69;;;29.32;37.49
8637;BME280;4356;49.068;8.658;2022-07-23T04:26:05;99892.19;;;29.35;37.84
8637;BME280;4356;49.068;8.658;2022-07-23T04:28:31;99885.03;;;29.29;37.62
8637;BME280;4356;49.068;8.658;2022-07-23T04:30:57;99882.81;;;29.31;37.60
8637;BME280;4356;49.068;8.658;2022-07-23T04:33:22;99882.50;;;29.32;37.63
8637;BME280;4356;49.068;8.658;2022-07-23T04:35:48;99877.03;;;29.27;37.89
8637;BME280;4356;49.068;8.658;2022-07-23T04:38:13;99877.84;;;29.28;37.71
8637;BME280;4356;49.068;8.658;2022-07-23T04:40:39;99875.06;;;29.28;37.92
8637;BME280;4356;49.068;8.658;2022-07-23T04:43:04;99887.81;;;29.29;37.81
8637;BME280;4356;49.068;8.658;2022-07-23T04:45:30;99883.44;;;29.23;38.15
8637;BME280;4356;49.068;8.658;2022-07-23T04:47:55;99902.75;;;29.28;37.90
8637;BME280;4356;49.068;8.658;2022-07-23T04:50:22;99902.81;;;29.23;38.29
8637;BME280;4356;49.068;8.658;2022-07-23T04:52:48;99903.34;;;29.25;38.14
8637;BME280;4356;49.068;8.658;2022-07-23T04:55:14;99902.25;;;29.26;38.68
8637;BME280;4356;49.068;8.658;2022-07-23T04:57:40;99902.25;;;29.26;38.46
8637;BME280;4356;49.068;8.658;2022-07-23T05:00:06;99905.53;;;29.28;37.86
8637;BME280;4356;49.068;8.658;2022-07-23T05:02:32;99908.06;;;29.24;38.43
8637;BME280;4356;49.068;8.658;2022-07-23T05:04:58;99909.72;;;29.25;38.27
8637;BME280;4356;49.068;8.658;2022-07-23T05:07:23;99903.34;;;29.25;38.49
8637;BME280;4356;49.068;8.658;2022-07-23T05:09:49;99902.81;;;29.23;38.71
8637;BME280;4356;49.068;8.658;2022-07-23T05:12:15;99916.13;;;29.21;38.82
8637;BME280;4356;49.068;8.658;2022-07-23T05:14:40;99938.50;;;29.24;38.57
8637;BME280;4356;49.068;8.658;2022-07-23T05:17:06;99947.09;;;29.23;38.07
8637;BME280;4356;49.068;8.658;2022-07-23T05:19:33;99952.63;;;29.23;37.91
8637;BME280;4356;49.068;8.658;2022-07-23T05:21:59;99947.47;;;29.16;37.47
8637;BME280;4356;49.068;8.658;2022-07-23T05:24:24;99965.94;;;29.21;37.73
8637;BME280;4356;49.068;8.658;2022-07-23T05:26:50;99964.59;;;29.18;37.75
8637;BME280;4356;49.068;8.658;2022-07-23T05:29:15;99961.00;;;29.18;37.78
8637;BME280;4356;49.068;8.658;2022-07-23T05:31:41;99961.84;;;29.18;38.31
8637;BME280;4356;49.068;8.658;2022-07-23T05:34:06;99945.53;;;29.17;38.20
8637;BME280;4356;49.068;8.658;2022-07-23T05:36:32;99926.66;;;29.19;38.57
8637;BME280;4356;49.068;8.658;2022-07-23T05:38:58;99930.00;;;29.16;38.50
8637;BME280;4356;49.068;8.658;2022-07-23T05:41:23;99927.56;;;29.09;38.71
8637;BME280;4356;49.068;8.658;2022-07-23T05:43:49;99933.38;;;29.13;38.72
8637;BME280;4356;49.068;8.658;2022-07-23T05:46:15;99943.63;;;29.12;38.62
8637;BME280;4356;49.068;8.658;2022-07-23T05:48:40;99926.75;;;29.09;38.24
8637;BME280;4356;49.068;8.658;2022-07-23T05:51:07;99921.78;;;29.11;38.09
8637;BME280;4356;49.068;8.658;2022-07-23T05:53:33;99918.44;;;29.09;38.45
8637;BME280;4356;49.068;8.658;2022-07-23T05:55:59;99924.53;;;29.11;38.41
8637;BME280;4356;49.068;8.658;2022-07-23T05:58:24;99924.81;;;29.09;38.42
8637;BME280;4356;49.068;8.658;2022-07-23T06:00:53;99922.59;;;29.11;38.62
8637;BME280;4356;49.068;8.658;2022-07-23T06:03:18;99922.84;;;29.10;38.30
8637;BME280;4356;49.068;8.658;2022-07-23T06:05:45;99931.16;;;29.15;38.49
8637;BME280;4356;49.068;8.658;2022-07-23T06:08:10;99933.09;;;29.09;38.94
8637;BME280;4356;49.068;8.658;2022-07-23T06:10:35;99935.00;;;29.14;38.57
8637;BME280;4356;49.068;8.658;2022-07-23T06:13:01;99943.63;;;29.12;38.90
8637;BME280;4356;49.068;8.658;2022-07-23T06:15:27;99954.69;;;29.12;38.96
8637;BME280;4356;49.068;8.658;2022-07-23T06:17:52;99960.75;;;29.14;39.31
8637;BME280;4356;49.068;8.658;2022-07-23T06:20:18;99951.63;;;29.14;39.57
8637;BME280;4356;49.068;8.658;2022-07-23T06:22:43;99935.00;;;29.14;39.51
8637;BME280;4356;49.068;8.658;2022-07-23T06:25:09;99943.03;;;29.15;39.79
8637;BME280;4356;49.068;8.658;2022-07-23T06:27:34;99962.97;;;29.12;39.69
8637;BME280;4356;49.068;8.658;2022-07-23T06:30:00;99985.13;;;29.12;39.36
8637;BME280;4356;49.068;8.658;2022-07-23T06:32:25;99983.50;;;29.11;39.64
8637;BME280;4356;49.068;8.658;2022-07-23T06:34:51;99992.03;;;29.15;39.88
8637;BME280;4356;49.068;8.658;2022-07-23T06:37:16;99990.38;;;29.14;39.53
8637;BME280;4356;49.068;8.658;2022-07-23T06:39:42;99999.22;;;29.16;40.03
8637;BME280;4356;49.068;8.658;2022-07-23T06:42:07;99990.97;;;29.11;40.00
8637;BME280;4356;49.068;8.658;2022-07-23T06:44:33;99998.97;;;29.12;39.92
8637;BME280;4356;49.068;8.658;2022-07-23T06:46:58;100001.72;;;29.12;40.23
8637;BME280;4356;49.068;8.658;2022-07-23T06:49:23;100003.09;;;29.10;40.19
8637;BME280;4356;49.068;8.658;2022-07-23T06:51:49;100015.28;;;29.14;40.18
8637;BME280;4356;49.068;8.658;2022-07-23T06:54:14;100006.13;;;29.13;40.68
8637;BME280;4356;49.068;8.658;2022-07-23T06:56:40;99983.19;;;29.13;40.40
8637;BME280;4356;49.068;8.658;2022-07-23T06:59:05;99972.66;;;29.10;40.93
8637;BME280;4356;49.068;8.658;2022-07-23T07:01:31;99982.06;;;29.14;40.96
8637;BME280;4356;49.068;8.658;2022-07-23T07:03:57;99973.25;;;29.07;41.21
8637;BME280;4356;49.068;8.658;2022-07-23T07:06:22;99969.63;;;29.06;42.05
8637;BME280;4356;49.068;8.658;2022-07-23T07:08:47;99972.16;;;29.03;42.43
8637;BME280;4356;49.068;8.658;2022-07-23T07:11:13;99980.44;;;29.08;42.50
8637;BME280;4356;49.068;8.658;2022-07-23T07:13:38;99982.69;;;29.06;42.55
8637;BME280;4356;49.068;8.658;2022-07-23T07:16:04;99992.06;;;29.05;42.40
8637;BME280;4356;49.068;8.658;2022-07-23T07:18:29;100004.50;;;29.07;42.66
8637;BME280;4356;49.068;8.658;2022-07-23T07:20:57;100012.28;;;29.05;43.38
8637;BME280;4356;49.068;8.658;2022-07-23T07:23:23;100022.22;;;29.06;43.68
8637;BME280;4356;49.068;8.658;2022-07-23T07:25:48;100023.69;;;28.99;43.54
8637;BME280;4356;49.068;8.658;2022-07-23T07:28:14;100021.44;;;29.01;43.49
8637;BME280;4356;49.068;8.658;2022-07-23T07:30:39;100018.66;;;29.01;43.36
8637;BME280;4356;49.068;8.658;2022-07-23T07:33:05;100016.47;;;28.98;43.69
8637;BME280;4356;49.068;8.658;2022-07-23T07:35:30;99999.34;;;28.96;43.38
8637;BME280;4356;49.068;8.658;2022-07-23T07:37:57;99999.34;;;28.96;43.94
8637;BME280;4356;49.068;8.658;2022-07-23T07:40:23;99991.09;;;28.91;43.92
8637;BME280;4356;49.068;8.658;2022-07-23T07:42:51;100004.63;;;28.92;44.26
8637;BME280;4356;49.068;8.658;2022-07-23T07:45:17;100010.75;;;28.89;44.39
8637;BME280;4356;49.068;8.658;2022-07-23T07:47:44;100010.78;;;28.84;44.30
8637;BME280;4356;49.068;8.658;2022-07-23T07:50:10;100013.81;;;28.83;44.25
8637;BME280;4356;49.068;8.658;2022-07-23T07:52:36;100024.88;;;28.88;44.11
8637;BME280;4356;49.068;8.658;2022-07-23T07:55:03;100029.56;;;28.87;43.97
8637;BME280;4356;49.068;8.658;2022-07-23T07:57:28;100027.09;;;28.81;44.43
8637;BME280;4356;49.068;8.658;2022-07-23T07:59:54;100032.09;;;28.84;43.88
8637;BME280;4356;49.068;8.658;2022-07-23T08:02:19;100023.78;;;28.84;44.22
8637;BME280;4356;49.068;8.658;2022-07-23T08:04:45;100026.84;;;28.82;44.43
8637;BME280;4356;49.068;8.658;2022-07-23T08:07:10;100038.44;;;28.84;44.66
8637;BME280;4356;49.068;8.658;2022-07-23T08:09:35;100034.31;;;28.82;44.44
8637;BME280;4356;49.068;8.658;2022-07-23T08:12:01;100040.09;;;28.85;44.17
8637;BME280;4356;49.068;8.658;2022-07-23T08:14:26;100038.69;;;28.88;44.03
8637;BME280;4356;49.068;8.658;2022-07-23T08:16:52;100043.09;;;28.89;44.38
8637;BME280;4356;49.068;8.658;2022-07-23T08:19:17;100035.34;;;28.91;44.60
8637;BME280;4356;49.068;8.658;2022-07-23T08:21:43;100031.47;;;28.92;44.48
8637;BME280;4356;49.068;8.658;2022-07-23T08:24:08;100042.53;;;28.92;44.33
8637;BME280;4356;49.068;8.658;2022-07-23T08:26:34;100039.75;;;28.92;44.20
8637;BME280;4356;49.068;8.658;2022-07-23T08:28:59;100035.91;;;28.93;44.37
8637;BME280;4356;49.068;8.658;2022-07-23T08:31:24;100032.28;;;28.92;43.84
8637;BME280;4356;49.068;8.658;2022-07-23T08:33:50;100044.16;;;28.98;43.76
8637;BME280;4356;49.068;8.658;2022-07-23T08:36:17;100042.75;;;29.00;43.69
8637;BME280;4356;49.068;8.658;2022-07-23T08:38:42;100049.88;;;29.06;43.78
8637;BME280;4356;49.068;8.658;2022-07-23T08:41:09;100047.41;;;29.05;43.67
8637;BME280;4356;49.068;8.658;2022-07-23T08:43:34;100048.25;;;29.05;43.32
8637;BME280;4356;49.068;8.658;2022-07-23T08:46:02;100052.69;;;29.11;43.42
8637;BME280;4356;49.068;8.658;2022-07-23T08:48:33;100045.19;;;29.12;43.28
8637;BME280;4356;49.068;8.658;2022-07-23T08:51:01;100044.31;;;29.16;43.04
8637;BME280;4356;49.068;8.658;2022-07-23T08:53:28;100050.94;;;29.20;42.64
8637;BME280;4356;49.068;8.658;2022-07-23T08:55:57;100045.41;;;29.20;42.91
8637;BME280;4356;49.068;8.658;2022-07-23T08:58:23;100045.66;;;29.24;42.44
8637;BME280;4356;49.068;8.658;2022-07-23T09:00:50;100043.94;;;29.28;42.31
8637;BME280;4356;49.068;8.658;2022-07-23T09:03:21;100041.94;;;29.33;42.03
8637;BME280;4356;49.068;8.658;2022-07-23T09:05:50;100042.19;;;29.37;42.41
8637;BME280;4356;49.068;8.658;2022-07-23T09:10:50;100042.94;;;29.48;41.83
8637;BME280;4356;49.068;8.658;2022-07-23T09:13:50;100036.81;;;29.51;41.72
8637;BME280;4356;49.068;8.658;2022-07-23T09:16:28;100045.91;;;29.56;42.04
8637;BME280;4356;49.068;8.658;2022-07-23T09:18:55;100044.22;;;29.60;41.91
8637;BME280;4356;49.068;8.658;2022-07-23T09:21:37;100042.22;;;29.66;41.94
8637;BME280;4356;49.068;8.658;2022-07-23T09:24:07;100037.75;;;29.70;42.21
8637;BME280;4356;49.068;8.658;2022-07-23T09:26:45;100036.34;;;29.72;41.53
8637;BME280;4356;49.068;8.658;2022-07-23T09:31:44;100030.69;;;29.82;41.90
8637;BME280;4356;49.068;8.658;2022-07-23T09:34:21;100027.88;;;29.87;41.78
8637;BME280;4356;49.068;8.658;2022-07-23T09:36:47;100031.69;;;29.91;41.86
8637;BME280;4356;49.068;8.658;2022-07-23T09:39:15;100035.00;;;29.93;41.38
8637;BME280;4356;49.068;8.658;2022-07-23T09:41:45;100030.22;;;29.99;41.68
8637;BME280;4356;49.068;8.658;2022-07-23T09:44:19;100034.59;;;30.05;41.08
8637;BME280;4356;49.068;8.658;2022-07-23T09:46:47;100035.44;;;30.05;40.64
8637;BME280;4356;49.068;8.658;2022-07-23T09:49:20;100033.69;;;30.09;40.93
8637;BME280;4356;49.068;8.658;2022-07-23T09:51:51;100038.91;;;30.16;41.02
8637;BME280;4356;49.068;8.658;2022-07-23T09:54:27;100033.81;;;30.23;40.73
8637;BME280;4356;49.068;8.658;2022-07-23T09:56:55;100027.69;;;30.26;40.37
8637;BME280;4356;49.068;8.658;2022-07-23T09:59:26;100043.47;;;30.30;40.48
8637;BME280;4356;49.068;8.658;2022-07-23T10:01:54;100033.22;;;30.31;40.17
8637;BME280;4356;49.068;8.658;2022-07-23T10:04:23;100040.84;;;30.39;40.00
8637;BME280;4356;49.068;8.658;2022-07-23T10:06:52;100035.31;;;30.39;40.12
8637;BME280;4356;49.068;8.658;2022-07-23T10:09:26;100038.84;;;30.45;40.41
8637;BME280;4356;49.068;8.658;2022-07-23T10:11:55;100042.38;;;30.50;40.43
8637;BME280;4356;49.068;8.658;2022-07-23T10:14:25;100044.84;;;30.52;40.17
8637;BME280;4356;49.068;8.658;2022-07-23T10:16:51;100045.91;;;30.56;40.56
8637;BME280;4356;49.068;8.658;2022-07-23T10:19:18;100053.03;;;30.62;40.05
8637;BME280;4356;49.068;8.658;2022-07-23T10:21:49;100046.56;;;30.66;39.84
8637;BME280;4356;49.068;8.658;2022-07-23T10:24:45;100050.41;;;30.70;39.57
8637;BME280;4356;49.068;8.658;2022-07-23T10:30:07;100041.69;;;30.77;39.75
8637;BME280;4356;49.068;8.658;2022-07-23T10:32:40;100045.84;;;30.79;39.26
8637;BME280;4356;49.068;8.658;2022-07-23T10:37:59;100044.16;;;30.83;39.13
8637;BME280;4356;49.068;8.658;2022-07-23T10:40:26;100039.66;;;30.87;39.03
8637;BME280;4356;49.068;8.658;2022-07-23T10:42:58;100040.16;;;30.89;39.23
8637;BME280;4356;49.068;8.658;2022-07-23T10:45:31;100043.66;;;30.95;39.05
8637;BME280;4356;49.068;8.658;2022-07-23T10:50:37;100040.00;;;30.99;38.92
8637;BME280;4356;49.068;8.658;2022-07-23T10:58:02;100026.03;;;31.04;37.99
8637;BME280;4356;49.068;8.658;2022-07-23T11:00:29;100029.88;;;31.08;38.24
8637;BME280;4356;49.068;8.658;2022-07-23T11:02:57;100029.25;;;31.11;38.54
8637;BME280;4356;49.068;8.658;2022-07-23T11:05:26;100033.06;;;31.15;38.32
8637;BME280;4356;49.068;8.658;2022-07-23T11:13:39;100027.34;;;31.25;37.69
8637;BME280;4356;49.068;8.658;2022-07-23T11:16:17;100030.94;;;31.26;38.03
8637;BME280;4356;49.068;8.658;2022-07-23T11:24:15;100033.28;;;31.38;36.88
8637;BME280;4356;49.068;8.658;2022-07-23T11:34:45;100018.69;;;31.46;36.09
8637;BME280;4356;49.068;8.658;2022-07-23T11:37:35;100006.16;;;31.48;36.24
8637;BME280;4356;49.068;8.658;2022-07-23T11:40:08;100029.13;;;31.54;36.48
8637;BME280;4356;49.068;8.658;2022-07-23T11:42:36;100023.78;;;31.57;36.22
8637;BME280;4356;49.068;8.658;2022-07-23T11:45:04;100017.38;;;31.57;36.14
8637;BME280;4356;49.068;8.658;2022-07-23T11:47:30;100023.66;;;31.62;36.10
8637;BME280;4356;49.068;8.658;2022-07-23T11:49:57;100024.19;;;31.64;36.30
8637;BME280;4356;49.068;8.658;2022-07-23T11:52:24;100032.41;;;31.69;36.26
8637;BME280;4356;49.068;8.658;2022-07-23T11:57:18;100030.38;;;31.75;35.88
8637;BME280;4356;49.068;8.658;2022-07-23T11:59:47;100035.34;;;31.78;36.30
8637;BME280;4356;49.068;8.658;2022-07-23T12:02:12;100018.16;;;31.76;36.48
8637;BME280;4356;49.068;8.658;2022-07-23T12:04:46;100021.13;;;31.79;36.56
8637;BME280;4356;49.068;8.658;2022-07-23T12:07:32;100024.94;;;31.83;36.21
8637;BME280;4356;49.068;8.658;2022-07-23T12:10:01;100021.84;;;31.85;36.44
8637;BME280;4356;49.068;8.658;2022-07-23T12:12:27;100007.66;;;31.86;36.59
8637;BME280;4356;49.068;8.658;2022-07-23T12:14:57;100000.16;;;31.87;36.56
8637;BME280;4356;49.068;8.658;2022-07-23T12:17:31;100006.94;;;31.94;36.59
8637;BME280;4356;49.068;8.658;2022-07-23T12:19:58;100010.25;;;31.96;36.33
8637;BME280;4356;49.068;8.658;2022-07-23T12:22:25;100001.38;;;31.94;36.45
8637;BME280;4356;49.068;8.658;2022-07-23T12:25:04;99995.75;;;31.99;36.24
8637;BME280;4356;49.068;8.658;2022-07-23T12:27:30;99988.00;;;31.96;35.97
8637;BME280;4356;49.068;8.658;2022-07-23T12:29:55;99998.41;;;32.04;35.66
8637;BME280;4356;49.068;8.658;2022-07-23T12:32:28;100000.25;;;32.09;36.01
8637;BME280;4356;49.068;8.658;2022-07-23T12:35:08;99996.03;;;32.11;35.79
8637;BME280;4356;49.068;8.658;2022-07-23T12:37:38;99994.09;;;32.12;35.60
8637;BME280;4356;49.068;8.658;2022-07-23T12:40:27;99997.06;;;32.15;35.43
8637;BME280;4356;49.068;8.658;2022-07-23T12:43:20;99984.47;;;32.18;35.20
8637;BME280;4356;49.068;8.658;2022-07-23T12:48:21;99990.75;;;32.23;35.80
8637;BME280;4356;49.068;8.658;2022-07-23T12:53:41;99986.75;;;32.29;35.62
8637;BME280;4356;49.068;8.658;2022-07-23T12:56:12;99987.25;;;32.31;35.80
8637;BME280;4356;49.068;8.658;2022-07-23T12:58:56;99987.47;;;32.35;35.84
8637;BME280;4356;49.068;8.658;2022-07-23T13:06:49;99987.06;;;32.42;35.46
8637;BME280;4356;49.068;8.658;2022-07-23T13:09:15;99990.03;;;32.45;35.32
8637;BME280;4356;49.068;8.658;2022-07-23T13:11:41;99993.00;;;32.49;35.12
8637;BME280;4356;49.068;8.658;2022-07-23T13:14:07;99983.53;;;32.50;35.24
8637;BME280;4356;49.068;8.658;2022-07-23T13:16:33;99992.09;;;32.53;35.01
8637;BME280;4356;49.068;8.658;2022-07-23T13:18:59;99986.53;;;32.53;35.36
8637;BME280;4356;49.068;8.658;2022-07-23T13:21:28;99987.53;;;32.57;35.04
8637;BME280;4356;49.068;8.658;2022-07-23T13:23:55;99980.84;;;32.58;34.93
8637;BME280;4356;49.068;8.658;2022-07-23T13:26:21;99992.66;;;32.64;34.77
8637;BME280;4356;49.068;8.658;2022-07-23T13:28:46;99987.09;;;32.64;35.02
8637;BME280;4356;49.068;8.658;2022-07-23T13:31:15;99985.34;;;32.68;34.44
8637;BME280;4356;49.068;8.658;2022-07-23T13:33:40;99983.06;;;32.70;34.29
8637;BME280;4356;49.068;8.658;2022-07-23T13:36:06;99980.28;;;32.70;34.67
8637;BME280;4356;49.068;8.658;2022-07-23T13:38:31;99984.91;;;32.74;34.50
8637;BME280;4356;49.068;8.658;2022-07-23T13:40:58;99970.28;;;32.69;34.63
8637;BME280;4356;49.068;8.658;2022-07-23T13:43:25;99983.97;;;32.79;34.60
8637;BME280;4356;49.068;8.658;2022-07-23T13:45:51;99969.88;;;32.75;34.35
8637;BME280;4356;49.068;8.658;2022-07-23T13:48:18;99976.75;;;32.78;34.72
8637;BME280;4356;49.068;8.658;2022-07-23T13:50:44;99980.03;;;32.80;34.31
8637;BME280;4356;49.068;8.658;2022-07-23T13:53:15;99976.94;;;32.81;34.46
8637;BME280;4356;49.068;8.658;2022-07-23T13:55:41;99983.00;;;32.83;34.64
8637;BME280;4356;49.068;8.658;2022-07-23T13:58:08;99968.59;;;32.81;34.31
8637;BME280;4356;49.068;8.658;2022-07-23T14:00:37;99977.34;;;32.88;34.18
8637;BME280;4356;49.068;8.658;2022-07-23T14:03:03;99972.56;;;32.89;33.97
8637;BME280;4356;49.068;8.658;2022-07-23T14:05:29;99961.94;;;32.91;34.15
8637;BME280;4356;49.068;8.658;2022-07-23T14:07:54;99969.97;;;32.92;33.84